Time;durP1;ratioP1;P1;durP2;ratioP2;P2;SDS_P1;SDS_P2;PMS_P1;PMS_P2;Temp;Humidity;BMP_temperature;BMP_pressure;BME280_temperature;BME280_humidity;BME280_pressure;Samples;Min_cycle;Max_cycle;Signal;HPM_P1;HPM_P2
2021/10/28 00:14:31;;;;;;;;;29.50;25.25;;;;;11.67;66.52;101796.72;5088468;27;45234;-78
2021/10/28 00:16:58;;;;;;;;;29.00;27.25;;;;;11.66;66.43;101794.13;5074066;27;45444;-78
2021/10/28 00:19:27;;;;;;;;;30.00;25.75;;;;;11.64;66.56;101790.66;5079608;27;45636;-78
2021/10/28 00:21:54;;;;;;;;;29.00;28.25;;;;;11.63;66.50;101789.78;5080497;27;45521;-78
2021/10/28 00:24:19;;;;;;;;;26.50;22.25;;;;;11.60;66.81;101779.31;5080137;28;46462;-79
2021/10/28 00:26:46;;;;;;;;;27.75;27.00;;;;;11.57;66.69;101782.88;5080490;27;45198;-79
2021/10/28 00:29:15;;;;;;;;;28.00;23.25;;;;;11.57;66.52;101780.25;5080367;28;45283;-80
2021/10/28 00:31:42;;;;;;;;;25.75;24.50;;;;;11.54;66.67;101777.69;5080300;28;45510;-80
2021/10/28 00:34:08;;;;;;;;;26.00;21.50;;;;;11.52;66.38;101768.06;5086848;27;45418;-80
2021/10/28 00:36:35;;;;;;;;;28.75;26.25;;;;;11.51;66.54;101771.63;5085381;27;45936;-80
2021/10/28 00:39:02;;;;;;;;;28.25;26.00;;;;;11.50;66.79;101768.13;5080225;27;45282;-79
2021/10/28 00:41:27;;;;;;;;;30.50;25.00;;;;;11.48;66.66;101764.66;5080342;28;45227;-79
2021/10/28 00:43:56;;;;;;;;;28.00;24.50;;;;;11.44;66.80;101758.56;5071331;27;46054;-78
2021/10/28 00:46:27;;;;;;;;;29.00;23.50;;;;;11.43;66.61;101754.19;5075996;28;45707;-78
2021/10/28 00:48:52;;;;;;;;;24.50;24.50;;;;;11.40;66.72;101753.41;5078999;27;45297;-79
2021/10/28 00:51:20;;;;;;;;;25.25;21.25;;;;;11.39;66.58;101752.53;5080308;27;45409;-80
2021/10/28 00:53:46;;;;;;;;;28.50;24.75;;;;;11.35;66.91;101743.84;5079328;28;46455;-82
2021/10/28 00:56:13;;;;;;;;;27.00;26.00;;;;;11.33;66.88;101745.59;5080147;28;45321;-82
2021/10/28 00:58:39;;;;;;;;;22.25;20.25;;;;;11.32;66.65;101737.75;5079979;28;45345;-82
2021/10/28 01:01:05;;;;;;;;;30.50;25.50;;;;;11.30;66.77;101739.56;5079967;27;45457;-82
2021/10/28 01:03:33;;;;;;;;;24.75;23.75;;;;;11.30;66.80;101739.56;5079974;27;45633;-82
2021/10/28 01:05:59;;;;;;;;;25.50;23.00;;;;;11.28;66.89;101736.97;5080107;28;45774;-84
2021/10/28 01:08:25;;;;;;;;;26.00;25.00;;;;;11.27;66.83;101739.59;5080149;28;45483;-77
2021/10/28 01:10:52;;;;;;;;;21.75;21.00;;;;;11.23;66.96;101734.44;5068831;27;45553;-80
2021/10/28 01:13:20;;;;;;;;;22.00;20.75;;;;;11.22;66.92;101732.69;5078093;28;45416;-82
2021/10/28 01:15:52;;;;;;;;;24.00;22.75;;;;;11.19;66.99;101730.09;5079607;27;45774;-82
2021/10/28 01:18:17;;;;;;;;;25.00;21.25;;;;;11.19;67.19;101734.50;5078641;28;45378;-84
2021/10/28 01:20:46;;;;;;;;;27.25;24.75;;;;;11.18;66.76;101736.28;5079541;27;45226;-82
2021/10/28 01:23:12;;;;;;;;;23.75;23.75;;;;;11.14;66.91;101727.56;5079714;27;47280;-82
2021/10/28 01:25:39;;;;;;;;;27.75;24.00;;;;;11.13;66.85;101732.88;5083681;27;45946;-82
2021/10/28 01:28:14;;;;;;;;;24.25;23.50;;;;;11.12;66.86;101724.09;5080087;27;45511;-82
2021/10/28 01:30:39;;;;;;;;;22.00;22.00;;;;;11.10;66.92;101728.53;5079262;27;45539;-84
2021/10/28 01:33:05;;;;;;;;;27.75;25.25;;;;;11.09;67.31;101725.91;5076473;27;45433;-83
2021/10/28 01:35:30;;;;;;;;;23.75;22.00;;;;;11.08;66.95;101730.31;5079640;28;45325;-83
2021/10/28 01:37:55;;;;;;;;;25.25;22.00;;;;;11.06;67.33;101726.84;5079370;28;45487;-83
2021/10/28 01:40:21;;;;;;;;;21.50;20.50;;;;;11.03;67.08;101721.66;5079124;27;45557;-83
2021/10/28 01:42:51;;;;;;;;;24.25;20.50;;;;;11.03;67.12;101724.28;5079517;27;45333;-83
2021/10/28 01:45:19;;;;;;;;;22.75;21.00;;;;;11.01;67.00;101713.75;5079389;28;45274;-83
2021/10/28 01:47:45;;;;;;;;;28.50;24.75;;;;;10.99;66.74;101712.94;5079613;28;45514;-83
2021/10/28 01:50:12;;;;;;;;;24.50;20.50;;;;;10.99;66.91;101712.94;5079475;27;45428;-83
2021/10/28 01:52:39;;;;;;;;;21.50;18.50;;;;;10.98;67.13;101707.72;5077524;27;47099;-83
2021/10/28 01:55:10;;;;;;;;;20.25;19.50;;;;;10.97;67.31;101704.22;5078752;27;45197;-82
2021/10/28 01:57:37;;;;;;;;;21.00;19.75;;;;;10.98;67.39;101713.84;5078229;28;45512;-82
2021/10/28 02:00:13;;;;;;;;;26.75;21.50;;;;;10.98;67.20;101708.59;5079167;27;45337;-82
2021/10/28 02:02:41;;;;;;;;;21.00;20.00;;;;;10.97;67.76;101708.59;5077583;28;45430;-85
2021/10/28 02:05:07;;;;;;;;;23.25;21.50;;;;;10.97;67.10;101700.69;5079497;27;45235;-83
2021/10/28 02:07:32;;;;;;;;;21.75;18.00;;;;;10.98;67.51;101690.16;5092748;27;45445;-82
2021/10/28 02:09:58;;;;;;;;;21.00;18.25;;;;;10.98;67.63;101690.16;5082421;27;45403;-81
2021/10/28 02:12:24;;;;;;;;;23.25;20.75;;;;;10.98;67.52;101687.53;5082627;27;46237;-81
2021/10/28 02:14:50;;;;;;;;;24.50;21.00;;;;;10.99;67.75;101688.38;5077349;27;45453;-81
2021/10/28 02:17:15;;;;;;;;;25.75;20.75;;;;;11.00;67.70;101675.22;5086098;27;45949;-81
2021/10/28 02:19:40;;;;;;;;;18.75;18.75;;;;;11.00;67.76;101682.25;5089618;27;45538;-81
2021/10/28 02:22:06;;;;;;;;;24.25;20.00;;;;;10.98;67.78;101669.13;5082410;27;45593;-83
2021/10/28 02:24:31;;;;;;;;;23.50;21.00;;;;;11.00;67.50;101667.31;5082597;27;45459;-81
2021/10/28 02:26:59;;;;;;;;;23.75;20.50;;;;;11.00;67.74;101674.34;5081769;27;45235;-82
2021/10/28 02:29:24;;;;;;;;;20.25;18.75;;;;;10.98;67.57;101666.50;5085454;27;45523;-81
2021/10/28 02:31:50;;;;;;;;;21.75;19.75;;;;;10.97;67.83;101659.50;5091127;27;45234;-82
2021/10/28 02:34:15;;;;;;;;;22.00;20.00;;;;;10.98;67.85;101653.34;5081779;27;45444;-81
2021/10/28 02:36:41;;;;;;;;;20.75;19.75;;;;;10.99;67.86;101656.81;5081207;28;45219;-81
2021/10/28 02:39:08;;;;;;;;;20.50;18.50;;;;;10.98;67.84;101652.47;5081863;27;45570;-77
2021/10/28 02:41:34;;;;;;;;;18.75;17.00;;;;;10.99;67.67;101649.78;5081669;27;45547;-78
2021/10/28 02:43:59;;;;;;;;;23.25;21.00;;;;;10.97;67.66;101648.97;5081008;27;45411;-78
2021/10/28 02:46:24;;;;;;;;;20.50;18.50;;;;;10.97;67.71;101648.97;5082285;27;45339;-77
2021/10/28 02:48:50;;;;;;;;;18.00;17.25;;;;;10.97;67.90;101648.97;5082127;27;45434;-78
2021/10/28 02:51:15;;;;;;;;;15.50;15.50;;;;;10.97;67.81;101646.34;5082065;28;46335;-78
2021/10/28 02:53:41;;;;;;;;;18.00;18.00;;;;;10.99;67.75;101649.78;5082126;28;45443;-77
2021/10/28 02:56:06;;;;;;;;;21.25;19.25;;;;;10.98;67.88;101650.72;5082038;27;45411;-82
2021/10/28 02:58:32;;;;;;;;;20.50;19.25;;;;;10.98;68.06;101650.72;5081443;28;45421;-82
2021/10/28 03:00:57;;;;;;;;;22.75;20.25;;;;;10.97;68.33;101648.97;5081758;27;45392;-82
2021/10/28 03:03:24;;;;;;;;;22.25;19.00;;;;;10.99;68.39;101636.63;5081959;28;45377;-82
2021/10/28 03:05:49;;;;;;;;;18.50;17.50;;;;;10.99;68.17;101641.91;5069295;27;45468;-82
2021/10/28 03:08:15;;;;;;;;;19.50;17.50;;;;;11.01;67.94;101644.53;5091770;27;45283;-82
2021/10/28 03:10:43;;;;;;;;;19.00;17.75;;;;;11.00;68.44;101641.03;5084621;27;45465;-82
2021/10/28 03:13:09;;;;;;;;;20.75;18.00;;;;;11.00;67.90;101627.88;5067959;27;45237;-82
2021/10/28 03:15:36;;;;;;;;;21.75;19.75;;;;;11.01;68.07;101628.75;5080285;27;45539;-80
2021/10/28 03:19:04;;;;;;;;;21.50;16.50;;;;;11.00;67.68;101630.50;5080711;27;45366;-79
2021/10/28 03:26:31;;;;;;;;;17.25;15.25;;;;;10.96;67.93;101620.06;5081765;27;45224;-81
2021/10/28 03:28:56;;;;;;;;;16.75;16.50;;;;;10.95;68.19;101611.31;5081079;28;45270;-80
2021/10/28 03:31:22;;;;;;;;;19.75;16.25;;;;;10.95;67.98;101615.69;5068611;27;45307;-80
2021/10/28 03:33:49;;;;;;;;;19.00;19.00;;;;;10.94;67.50;101612.19;5080107;28;45233;-81
2021/10/28 03:36:26;;;;;;;;;21.25;17.75;;;;;10.91;67.87;101610.50;5085602;27;45524;-81
2021/10/28 03:39:14;;;;;;;;;24.75;19.50;;;;;10.90;67.91;101610.53;5088717;27;45602;-79
2021/10/28 04:08:48;;;;;;;;;16.75;15.50;;;;;10.70;67.81;101593.38;5081135;28;45412;-81
2021/10/28 04:29:48;;;;;;;;;24.25;20.25;;;;;10.61;67.95;101583.94;5068665;28;45489;-82
2021/10/28 04:32:13;;;;;;;;;24.25;20.50;;;;;10.61;68.27;101594.44;5068556;27;45421;-80
2021/10/28 04:34:40;;;;;;;;;16.00;15.75;;;;;10.58;67.99;101579.59;5080540;28;45465;-80
2021/10/28 04:37:09;;;;;;;;;21.25;18.25;;;;;10.59;68.37;101580.47;5080364;28;45161;-80
2021/10/28 04:39:34;;;;;;;;;23.50;19.25;;;;;10.58;68.30;101583.97;5079019;27;45286;-83
2021/10/28 04:41:59;;;;;;;;;22.50;20.75;;;;;10.58;68.07;101582.22;5080176;27;45373;-84
2021/10/28 04:44:25;;;;;;;;;19.75;18.75;;;;;10.60;68.01;101597.09;5079752;28;45380;-80
2021/10/28 04:46:50;;;;;;;;;19.50;17.50;;;;;10.59;68.25;101596.25;5069231;27;45821;-80
2021/10/28 04:49:16;;;;;;;;;23.50;19.00;;;;;10.59;68.25;101596.25;5077071;28;45297;-85
2021/10/28 04:51:41;;;;;;;;;19.25;17.25;;;;;10.57;68.24;101591.00;5080424;27;45499;-86
2021/10/28 04:54:06;;;;;;;;;15.25;15.00;;;;;10.57;68.22;101595.38;5078623;28;47079;-86
2021/10/28 04:56:32;;;;;;;;;16.00;15.00;;;;;10.54;68.07;101596.31;5080354;27;45433;-87
2021/10/28 04:58:57;;;;;;;;;24.50;19.25;;;;;10.56;68.33;101599.78;5080109;28;45600;-82
2021/10/28 05:01:25;;;;;;;;;22.75;18.75;;;;;10.56;68.32;101601.56;5087496;27;45399;-82
2021/10/28 05:03:50;;;;;;;;;17.25;15.25;;;;;10.54;68.16;101598.09;5083859;27;46106;-82
2021/10/28 05:06:16;;;;;;;;;19.25;17.50;;;;;10.52;68.13;101600.72;5080278;27;45201;-82
2021/10/28 05:08:41;;;;;;;;;19.25;18.25;;;;;10.51;68.01;101595.50;5080080;27;45610;-82
2021/10/28 05:11:07;;;;;;;;;23.75;20.50;;;;;10.51;68.10;101601.66;5078901;27;46353;-79
2021/10/28 05:13:32;;;;;;;;;23.00;19.50;;;;;10.50;68.17;101591.97;5076679;27;46388;-79
2021/10/28 05:15:59;;;;;;;;;20.00;19.50;;;;;10.48;68.04;101588.53;5078858;27;45190;-80
2021/10/28 05:18:25;;;;;;;;;25.25;19.00;;;;;10.49;68.09;101592.88;5079947;27;45440;-80
2021/10/28 05:20:53;;;;;;;;;17.75;16.75;;;;;10.47;67.95;101594.66;5073666;27;47138;-81
2021/10/28 05:23:18;;;;;;;;;21.00;21.00;;;;;10.46;68.04;101592.94;5079218;27;45487;-82
2021/10/28 05:25:47;;;;;;;;;23.75;18.50;;;;;10.42;68.10;101588.66;5089894;27;45404;-82
2021/10/28 05:28:13;;;;;;;;;18.50;14.50;;;;;10.42;68.26;101583.38;5079258;28;45301;-81
2021/10/28 05:30:39;;;;;;;;;20.75;16.50;;;;;10.40;68.46;101590.41;5079389;27;45535;-81
2021/10/28 05:33:04;;;;;;;;;22.75;17.25;;;;;10.37;67.89;101590.50;5078802;27;45453;-81
2021/10/28 05:35:29;;;;;;;;;20.75;20.00;;;;;10.34;67.88;101597.53;5112499;27;45345;-76
2021/10/28 05:37:55;;;;;;;;;20.25;19.25;;;;;10.35;68.12;101593.13;5080102;28;45461;-80
2021/10/28 05:40:21;;;;;;;;;23.50;17.75;;;;;10.35;67.82;101603.63;5079309;28;45443;-80
2021/10/28 05:42:52;;;;;;;;;18.50;17.00;;;;;10.32;68.19;101599.31;5082578;28;45291;-79
2021/10/28 05:45:19;;;;;;;;;20.00;18.50;;;;;10.32;68.11;101593.22;5081957;27;45276;-76
2021/10/28 05:47:45;;;;;;;;;26.75;22.00;;;;;10.31;67.99;101594.97;5081269;27;45425;-76
2021/10/28 05:50:19;;;;;;;;;22.50;20.50;;;;;10.29;68.01;101594.13;5086440;27;45622;-76
2021/10/28 05:52:47;;;;;;;;;23.75;21.00;;;;;10.30;68.19;101594.97;5082290;27;47896;-76
2021/10/28 05:55:12;;;;;;;;;20.50;20.50;;;;;10.28;68.01;101591.50;5082250;27;45460;-76
2021/10/28 05:57:38;;;;;;;;;23.50;19.75;;;;;10.25;68.17;101587.16;5083204;28;45294;-76
2021/10/28 06:00:07;;;;;;;;;23.50;21.25;;;;;10.25;68.09;101581.91;5082606;28;45407;-76
2021/10/28 06:02:33;;;;;;;;;22.25;19.75;;;;;10.26;68.17;101590.66;5081047;28;46147;-76
2021/10/28 06:04:59;;;;;;;;;22.00;19.50;;;;;10.24;68.04;101585.44;5079245;28;45261;-76
2021/10/28 06:07:24;;;;;;;;;20.25;20.25;;;;;10.22;68.11;101589.88;5082919;27;45452;-79
2021/10/28 06:09:50;;;;;;;;;21.75;19.25;;;;;10.19;68.32;101588.16;5089769;27;45345;-77
2021/10/28 06:12:16;;;;;;;;;26.00;21.50;;;;;10.20;68.26;101587.25;5078465;27;45419;-76
2021/10/28 06:14:41;;;;;;;;;22.50;22.50;;;;;10.20;68.05;101586.38;5082631;27;45385;-76
2021/10/28 06:17:08;;;;;;;;;28.00;23.00;;;;;10.19;67.98;101582.03;5083044;27;45948;-76
2021/10/28 06:19:35;;;;;;;;;23.50;21.50;;;;;10.16;68.29;101579.47;5082398;27;45452;-76
2021/10/28 06:22:01;;;;;;;;;24.50;20.00;;;;;10.13;68.24;101583.88;5081806;27;46054;-76
2021/10/28 06:24:27;;;;;;;;;21.25;19.75;;;;;10.13;68.41;101583.88;5081261;28;45709;-76
2021/10/28 06:26:53;;;;;;;;;24.75;22.25;;;;;10.12;68.35;101587.38;5082551;27;45527;-76
2021/10/28 06:29:18;;;;;;;;;23.25;22.25;;;;;10.13;68.22;101586.50;5078436;27;45463;-76
2021/10/28 06:31:46;;;;;;;;;22.25;19.00;;;;;10.11;68.26;101585.66;5073533;28;46458;-76
2021/10/28 06:34:18;;;;;;;;;24.25;22.25;;;;;10.10;68.21;101588.34;5086855;27;45796;-76
2021/10/28 06:36:44;;;;;;;;;29.00;22.75;;;;;10.07;68.21;101594.50;5081221;27;45226;-76
2021/10/28 06:39:09;;;;;;;;;23.50;20.50;;;;;10.06;68.32;101603.25;5080514;28;45420;-76
2021/10/28 06:41:36;;;;;;;;;22.25;22.00;;;;;10.09;68.19;101603.22;5083775;27;45455;-76
2021/10/28 06:44:02;;;;;;;;;24.75;22.50;;;;;10.06;68.40;101592.75;5084649;27;45988;-76
2021/10/28 06:46:28;;;;;;;;;27.00;23.25;;;;;10.07;68.44;101599.75;5076402;27;45405;-77
2021/10/28 06:48:54;;;;;;;;;24.25;21.50;;;;;10.07;68.58;101597.13;5082241;27;45242;-77
2021/10/28 06:51:20;;;;;;;;;31.00;25.75;;;;;10.06;68.43;101603.25;5084110;27;46313;-77
2021/10/28 07:04:38;;;;;;;;;26.00;22.00;;;;;10.03;68.65;101598.06;5083298;27;45792;-78
2021/10/28 07:07:04;;;;;;;;;24.25;23.25;;;;;10.02;68.96;101597.19;5093988;27;45577;-78
2021/10/28 07:09:34;;;;;;;;;27.25;25.25;;;;;10.05;68.70;101592.78;5067506;27;45304;-78
2021/10/28 07:12:25;;;;;;;;;26.00;26.00;;;;;10.04;68.82;101589.28;5079548;28;46050;-77
2021/10/28 07:14:53;;;;;;;;;25.25;24.25;;;;;10.04;68.77;101589.28;5080293;27;45413;-78
2021/10/28 07:25:34;;;;;;;;;26.00;23.75;;;;;10.09;69.17;101602.34;5079203;27;45308;-78
2021/10/28 07:31:09;;;;;;;;;29.50;24.25;;;;;10.09;69.03;101597.97;5081388;28;45464;-78
2021/10/28 07:36:16;;;;;;;;;28.25;27.00;;;;;10.11;69.35;101600.56;5094230;27;45353;-78
2021/10/28 07:58:22;;;;;;;;;30.25;26.25;;;;;10.29;69.67;101601.13;5081093;28;45448;-77
2021/10/28 08:06:24;;;;;;;;;30.75;27.75;;;;;10.34;69.88;101587.03;5081002;27;45681;-77
2021/10/28 08:21:52;;;;;;;;;31.25;25.50;;;;;10.55;69.86;101578.78;5078952;27;45510;-77
2021/10/28 08:24:34;;;;;;;;;31.00;30.50;;;;;10.57;70.10;101583.09;5075693;27;45444;-76
2021/10/28 08:29:48;;;;;;;;;30.00;29.00;;;;;10.63;70.27;101579.50;5070970;28;45367;-77
2021/10/28 08:32:15;;;;;;;;;33.75;28.75;;;;;10.67;70.56;101570.66;5079763;27;45305;-76
2021/10/28 08:34:42;;;;;;;;;31.50;30.50;;;;;10.71;70.31;101571.47;5070977;28;45466;-76
2021/10/28 08:37:13;;;;;;;;;31.75;27.00;;;;;10.76;70.54;101580.13;5064917;28;46292;-76
2021/10/28 08:39:42;;;;;;;;;32.75;30.00;;;;;10.79;70.53;101576.59;5078226;28;45771;-76
2021/10/28 08:42:11;;;;;;;;;30.75;30.00;;;;;10.82;70.76;101570.34;5080372;27;45303;-76
2021/10/28 08:44:44;;;;;;;;;31.75;28.00;;;;;10.86;70.65;101561.53;5075223;28;45678;-76
2021/10/28 08:47:14;;;;;;;;;32.50;26.50;;;;;10.92;70.60;101561.38;5073879;27;45477;-76
2021/10/28 08:49:51;;;;;;;;;29.25;27.75;;;;;10.93;70.70;101557.88;5077430;28;45912;-77
2021/10/28 08:55:28;;;;;;;;;32.25;30.75;;;;;11.01;70.45;101550.66;5070636;27;45385;-76
2021/10/28 09:25:37;;;;;;;;;24.75;21.50;;;;;11.61;70.79;101507.19;5091359;27;45724;-77
2021/10/28 09:28:16;;;;;;;;;31.25;26.50;;;;;11.68;70.87;101507.94;5079107;27;45454;-77
2021/10/28 09:30:49;;;;;;;;;25.25;23.50;;;;;11.75;70.88;101503.34;5078613;28;46097;-77
2021/10/28 09:33:23;;;;;;;;;24.25;22.75;;;;;11.79;70.66;101497.97;5069192;27;46313;-76
2021/10/28 09:36:11;;;;;;;;;27.00;23.25;;;;;11.85;70.86;101494.31;5077376;28;45309;-76
2021/10/28 09:48:23;;;;;;;;;27.00;25.50;;;;;12.11;70.57;101498.03;5077822;27;45483;-77
2021/10/28 09:50:31;;;;;;;;;24.00;20.50;;;;;12.15;70.53;101494.41;5056062;28;45490;-77
2021/10/28 09:53:34;;;;;;;;;26.50;23.75;;;;;12.21;70.37;101489.88;5076744;28;47118;-77
2021/10/28 09:58:39;;;;;;;;;17.75;17.75;;;;;12.35;70.27;101492.13;5084861;27;45440;-77
2021/10/28 10:01:08;;;;;;;;;23.00;21.25;;;;;12.40;70.40;101489.34;5074835;27;45618;-77
2021/10/28 10:03:38;;;;;;;;;19.00;18.00;;;;;12.45;70.54;101490.97;5071304;28;45303;-77
2021/10/28 10:06:06;;;;;;;;;19.50;18.00;;;;;12.53;70.20;101490.75;5072026;27;45530;-77
2021/10/28 10:08:33;;;;;;;;;24.25;20.25;;;;;12.58;70.32;101472.16;5070386;28;45432;-77
2021/10/28 10:10:58;;;;;;;;;23.00;22.75;;;;;12.64;70.07;101471.09;5078668;27;45416;-77
2021/10/28 10:13:29;;;;;;;;;22.00;16.75;;;;;12.71;70.42;101467.38;5077714;27;46560;-77
2021/10/28 10:16:00;;;;;;;;;23.75;20.75;;;;;12.75;70.03;101458.44;5078139;27;45278;-77
2021/10/28 10:18:29;;;;;;;;;23.00;20.50;;;;;12.83;70.15;101461.72;5083759;27;45770;-76
2021/10/28 10:21:00;;;;;;;;;19.00;17.75;;;;;12.89;70.00;101457.16;5086173;27;45805;-77
2021/10/28 10:23:58;;;;;;;;;21.75;18.75;;;;;12.94;70.08;101457.84;5077233;27;46093;-77
2021/10/28 11:27:33;;;;;;;;;13.00;12.50;;;;;14.36;67.51;101359.66;5070824;28;45299;-77
2021/10/28 18:24:29;;;;;;;;;17.50;15.00;;;;;15.06;61.15;100929.81;5260765;22;45608;-73
2021/10/28 18:26:55;;;;;;;;;12.25;11.00;;;;;15.07;61.08;100936.84;4941705;28;46224;-73
2021/10/28 18:29:21;;;;;;;;;13.25;13.25;;;;;15.05;61.13;100933.41;4952736;28;45994;-73
2021/10/28 18:31:47;;;;;;;;;20.00;13.75;;;;;15.04;60.97;100926.38;4931839;28;45211;-73
2021/10/28 18:34:14;;;;;;;;;14.50;12.25;;;;;15.02;61.14;100925.63;4963299;28;45369;-73
2021/10/28 18:36:40;;;;;;;;;11.75;11.75;;;;;15.02;61.36;100916.81;4950707;28;46107;-73
2021/10/28 18:39:09;;;;;;;;;15.00;15.00;;;;;15.01;61.11;100923.91;4954812;28;45238;-74
2021/10/28 18:41:34;;;;;;;;;17.75;14.75;;;;;14.98;61.43;100913.47;4957092;28;45227;-74
2021/10/28 18:44:00;;;;;;;;;16.50;14.00;;;;;14.98;61.45;100917.91;4952096;28;45820;-74
2021/10/28 18:46:26;;;;;;;;;17.25;15.00;;;;;14.97;62.00;100919.69;4954731;28;45734;-74
2021/10/28 18:48:54;;;;;;;;;16.25;14.25;;;;;14.96;61.64;100915.34;4935460;28;45561;-74
2021/10/28 18:51:21;;;;;;;;;19.25;15.00;;;;;14.97;61.62;100919.69;4956979;28;45468;-74
2021/10/28 18:53:49;;;;;;;;;16.75;14.75;;;;;14.93;61.74;100908.41;4956301;28;45565;-74
2021/10/28 18:56:15;;;;;;;;;15.25;14.25;;;;;14.93;61.88;100910.19;4961245;28;46198;-74
2021/10/28 18:58:42;;;;;;;;;19.75;13.50;;;;;14.91;62.04;100910.28;4948607;28;45443;-74
2021/10/28 19:01:09;;;;;;;;;21.25;16.75;;;;;14.93;61.77;100908.41;4946452;28;45244;-74
2021/10/28 19:03:35;;;;;;;;;18.75;16.00;;;;;14.92;61.83;100901.38;4949941;28;45742;-74
2021/10/28 19:06:00;;;;;;;;;20.75;16.50;;;;;14.91;61.63;100898.81;4954319;28;45924;-74
2021/10/28 19:08:26;;;;;;;;;17.50;15.75;;;;;14.89;61.64;100892.75;4950115;28;45231;-74
2021/10/28 19:10:52;;;;;;;;;16.50;15.25;;;;;14.88;62.06;100899.84;4945440;28;46113;-74
2021/10/28 19:13:18;;;;;;;;;17.50;13.75;;;;;14.85;62.10;100898.19;4954088;28;45501;-74
2021/10/28 19:15:44;;;;;;;;;14.25;10.00;;;;;14.84;61.96;100896.44;4954517;28;46571;-74
2021/10/28 19:18:09;;;;;;;;;16.25;15.50;;;;;14.81;61.72;100891.31;4961643;28;45406;-74
2021/10/28 19:20:36;;;;;;;;;17.00;16.50;;;;;14.80;62.18;100889.59;4954787;28;47114;-74
2021/10/28 19:23:02;;;;;;;;;18.75;18.00;;;;;14.78;62.31;100893.22;4960938;28;45436;-73
2021/10/28 19:25:27;;;;;;;;;15.75;14.25;;;;;14.75;62.32;100886.31;4953000;28;45322;-74
2021/10/28 19:27:54;;;;;;;;;20.25;16.50;;;;;14.74;61.91;100885.44;4958668;28;45310;-74
2021/10/28 19:32:55;;;;;;;;;19.00;19.00;;;;;14.72;61.83;100884.66;4960181;28;45532;-74
2021/10/28 19:35:23;;;;;;;;;20.50;16.75;;;;;14.70;62.17;100883.88;4954468;28;45660;-74
2021/10/28 19:46:19;;;;;;;;;23.25;19.25;;;;;14.67;62.15;100872.59;4961210;28;45747;-74
2021/10/28 19:48:46;;;;;;;;;20.00;17.50;;;;;14.68;62.33;100874.31;4954732;28;45406;-74
2021/10/28 19:51:12;;;;;;;;;20.25;20.25;;;;;14.67;62.40;100875.25;4949114;28;45428;-74
2021/10/28 19:53:39;;;;;;;;;20.25;18.75;;;;;14.66;62.00;100868.22;4960037;28;45750;-74
2021/10/28 19:56:18;;;;;;;;;18.75;17.00;;;;;14.65;62.19;100866.50;4949642;28;45302;-74
2021/10/28 19:58:53;;;;;;;;;20.25;18.50;;;;;14.61;62.33;100866.69;4961160;28;45460;-74
2021/10/28 20:06:42;;;;;;;;;15.25;15.00;;;;;14.53;62.37;100866.19;4961855;28;45279;-73
2021/10/28 20:20:10;;;;;;;;;24.75;17.25;;;;;14.36;62.43;100865.19;4945332;28;45696;-74
2021/10/28 20:22:38;;;;;;;;;25.00;21.00;;;;;14.33;62.52;100862.69;4943846;28;45671;-74
2021/10/28 20:25:06;;;;;;;;;20.25;19.50;;;;;14.30;63.01;100862.81;4959782;28;45447;-75
2021/10/28 20:27:32;;;;;;;;;23.50;19.00;;;;;14.26;63.03;100854.19;4961285;28;45506;-75
2021/10/28 20:29:58;;;;;;;;;19.75;18.50;;;;;14.25;62.91;100862.19;4951105;28;45773;-75
2021/10/28 20:32:24;;;;;;;;;22.25;19.50;;;;;14.21;62.99;100855.31;4952250;28;45454;-75
2021/10/28 20:37:15;;;;;;;;;25.00;23.25;;;;;14.14;62.81;100846.84;4961048;28;45211;-75
2021/10/28 20:39:44;;;;;;;;;27.25;24.00;;;;;14.14;63.06;100852.97;4960664;28;45413;-75
2021/10/28 20:42:15;;;;;;;;;27.75;23.00;;;;;14.11;63.23;100852.25;4951592;28;45498;-75
2021/10/28 20:44:40;;;;;;;;;32.00;27.50;;;;;14.07;63.23;100846.28;4954667;28;45270;-75
2021/10/28 20:47:05;;;;;;;;;27.50;23.75;;;;;14.05;63.30;100850.78;4961154;28;46784;-75
2021/10/28 20:49:32;;;;;;;;;26.25;21.25;;;;;14.02;63.39;100857.06;4961212;28;45441;-75
2021/10/28 20:51:57;;;;;;;;;29.25;26.75;;;;;14.00;63.16;100845.66;4960358;28;45572;-75
2021/10/28 20:54:23;;;;;;;;;28.00;23.50;;;;;13.99;63.43;100853.69;4951951;28;45275;-75
2021/10/28 20:56:50;;;;;;;;;22.75;21.75;;;;;13.94;63.22;100846.81;4948074;28;46125;-75
2021/10/28 20:59:15;;;;;;;;;30.75;23.50;;;;;13.91;63.47;100844.31;4957105;28;45362;-75
2021/10/28 21:01:42;;;;;;;;;24.75;23.50;;;;;13.91;63.48;100861.94;4959711;28;45331;-75
2021/10/28 21:04:07;;;;;;;;;26.50;23.25;;;;;13.85;63.66;100857.81;4947494;28;45472;-75
2021/10/28 21:06:35;;;;;;;;;24.75;20.50;;;;;13.84;63.49;100856.09;4956858;28;46084;-75
2021/10/28 21:09:01;;;;;;;;;25.00;22.75;;;;;13.81;63.98;100853.59;4945061;28;45630;-75
2021/10/28 21:11:26;;;;;;;;;29.25;25.25;;;;;13.78;63.79;100859.03;4949955;28;45167;-75
2021/10/28 21:13:53;;;;;;;;;24.00;23.00;;;;;13.75;63.80;100856.50;4955357;28;45317;-75
2021/10/28 21:16:19;;;;;;;;;19.75;16.00;;;;;13.72;63.98;100863.66;4947652;28;45442;-75
2021/10/28 21:18:45;;;;;;;;;24.00;22.75;;;;;13.68;64.13;100851.47;4949445;28;45343;-75
2021/10/28 21:21:11;;;;;;;;;22.00;20.00;;;;;13.65;63.77;100856.94;4960745;28;45504;-75
2021/10/28 21:23:37;;;;;;;;;27.00;22.75;;;;;13.63;63.88;100853.47;4957079;28;45309;-75
2021/10/28 21:26:02;;;;;;;;;20.50;17.25;;;;;13.60;64.23;100848.34;4953355;28;46474;-75
2021/10/28 21:28:28;;;;;;;;;29.75;23.25;;;;;13.59;64.45;100857.19;4952322;28;45273;-75
2021/10/28 21:30:54;;;;;;;;;24.25;23.25;;;;;13.55;64.54;100840.59;4960750;28;45376;-75
2021/10/28 21:33:20;;;;;;;;;24.00;23.75;;;;;13.53;64.42;100849.50;4953251;28;45208;-75
2021/10/28 21:35:45;;;;;;;;;24.75;22.75;;;;;13.51;64.48;100849.56;4959652;28;45533;-75
2021/10/28 21:38:11;;;;;;;;;23.75;23.00;;;;;13.49;64.51;100847.00;4946814;28;45308;-74
2021/10/28 21:40:37;;;;;;;;;24.25;23.00;;;;;13.46;64.83;100852.41;4943287;28;45430;-74
2021/10/28 21:43:03;;;;;;;;;31.25;24.50;;;;;13.47;64.69;100847.97;4958542;28;45240;-74
2021/10/28 21:45:28;;;;;;;;;21.75;20.00;;;;;13.45;64.78;100853.34;4945895;28;47039;-74
2021/10/28 21:47:54;;;;;;;;;20.75;20.75;;;;;13.44;64.69;100846.34;4956928;28;45357;-74
2021/10/28 21:50:20;;;;;;;;;26.25;22.00;;;;;13.42;64.74;100844.69;4933354;28;45322;-75
2021/10/28 21:52:54;;;;;;;;;24.50;22.25;;;;;13.41;64.90;100843.81;4958933;28;45445;-74
2021/10/28 21:58:05;;;;;;;;;18.75;18.50;;;;;13.38;65.00;100834.25;4947453;28;45225;-74
2021/10/28 22:03:39;;;;;;;;;23.25;18.50;;;;;13.36;65.14;100841.38;4953113;28;45303;-74
2021/10/28 22:25:00;;;;;;;;;21.50;18.75;;;;;13.31;65.75;100816.97;4954621;28;45184;-77
2021/10/28 22:27:28;;;;;;;;;22.75;19.50;;;;;13.33;65.85;100820.41;4944896;28;45389;-77
2021/10/28 22:29:56;;;;;;;;;21.75;21.00;;;;;13.30;65.31;100809.97;4950997;28;45227;-77
2021/10/28 22:32:22;;;;;;;;;21.50;21.50;;;;;13.32;65.53;100807.25;4954264;28;45481;-77
2021/10/28 22:34:47;;;;;;;;;20.25;17.50;;;;;13.30;65.65;100795.91;4958169;28;45299;-77
2021/10/28 22:37:21;;;;;;;;;18.00;16.75;;;;;13.30;65.79;100791.50;4954868;28;45527;-77
2021/10/28 22:42:15;;;;;;;;;17.25;16.75;;;;;13.30;65.81;100794.16;4960916;28;45431;-77
2021/10/28 22:44:41;;;;;;;;;18.00;18.00;;;;;13.31;66.05;100789.72;4959135;28;45453;-77
2021/10/28 22:47:06;;;;;;;;;20.25;17.50;;;;;13.31;65.97;100784.44;4953485;28;46168;-77
2021/10/28 22:49:32;;;;;;;;;16.50;15.75;;;;;13.32;65.86;100786.16;4953384;28;45216;-77
2021/10/28 22:52:06;;;;;;;;;17.25;16.25;;;;;13.30;66.03;100782.72;4958677;28;45234;-77
2021/10/28 22:54:33;;;;;;;;;20.75;18.00;;;;;13.32;65.96;100791.44;4960175;28;45788;-77
2021/10/28 22:56:58;;;;;;;;;23.75;19.25;;;;;13.31;66.05;100781.81;4952036;28;46489;-77